Time;durP1;ratioP1;P1;durP2;ratioP2;P2;SDS_P1;SDS_P2;PMS_P1;PMS_P2;Temp;Humidity;BMP_temperature;BMP_pressure;BME280_temperature;BME280_humidity;BME280_pressure;Samples;Min_cycle;Max_cycle;Signal;HPM_P1;HPM_P2
2023/08/29 00:00:15;;;;;;;;;;;13.10;99.90;;;;;;5118255;27;19919;-44
2023/08/29 00:02:41;;;;;;;;;;;13.00;99.90;;;;;;5113386;28;20427;-46
2023/08/29 00:05:07;;;;;;;;;;;13.00;99.90;;;;;;5119705;27;20263;-47
2023/08/29 00:07:33;;;;;;;;;;;12.90;99.90;;;;;;5128690;27;20251;-43
2023/08/29 00:09:58;;;;;;;;;;;12.90;99.90;;;;;;5133986;27;19915;-45
2023/08/29 00:12:24;;;;;;;;;;;12.90;99.90;;;;;;5133825;27;19972;-45
2023/08/29 00:14:49;;;;;;;;;;;12.90;99.90;;;;;;5133705;27;19907;-46
2023/08/29 00:17:16;;;;;;;;;;;12.90;99.90;;;;;;5133358;27;19918;-45
2023/08/29 00:19:42;;;;;;;;;;;12.80;99.90;;;;;;5133676;28;20033;-44
2023/08/29 00:22:07;;;;;;;;;;;12.80;99.90;;;;;;5133825;28;19954;-44
2023/08/29 00:24:33;;;;;;;;;;;12.90;99.90;;;;;;5133608;28;19950;-44
2023/08/29 00:26:58;;;;;;;;;;;12.90;99.90;;;;;;5133214;28;19919;-47
2023/08/29 00:29:26;;;;;;;;;;;12.80;99.90;;;;;;5131734;28;19907;-45
2023/08/29 00:31:51;;;;;;;;;;;12.80;99.90;;;;;;5116857;28;19943;-48
2023/08/29 00:34:17;;;;;;;;;;;12.80;99.90;;;;;;5130732;28;20388;-46
2023/08/29 00:36:42;;;;;;;;;;;12.80;99.90;;;;;;5133585;28;20068;-45
2023/08/29 00:39:08;;;;;;;;;;;12.80;99.90;;;;;;5133612;28;20369;-45
2023/08/29 00:41:33;;;;;;;;;;;12.70;99.90;;;;;;5128558;28;19957;-44
2023/08/29 00:43:59;;;;;;;;;;;12.70;99.90;;;;;;5125759;28;20286;-45
2023/08/29 00:46:25;;;;;;;;;;;12.70;99.90;;;;;;5112503;28;20359;-47
2023/08/29 00:48:50;;;;;;;;;;;12.70;99.90;;;;;;5113226;28;20247;-44
2023/08/29 00:51:17;;;;;;;;;;;12.60;99.90;;;;;;5123263;27;19918;-45
2023/08/29 00:53:42;;;;;;;;;;;12.60;99.90;;;;;;5132499;28;19911;-45
2023/08/29 00:56:08;;;;;;;;;;;12.60;99.90;;;;;;5133836;27;19934;-44
2023/08/29 00:58:34;;;;;;;;;;;12.50;99.90;;;;;;5137285;27;19908;-47
2023/08/29 01:01:00;;;;;;;;;;;12.50;99.90;;;;;;5137383;27;19968;-48
2023/08/29 01:03:25;;;;;;;;;;;12.50;99.90;;;;;;5136797;27;20277;-43
2023/08/29 01:05:51;;;;;;;;;;;12.50;99.90;;;;;;5136930;27;20454;-44
2023/08/29 01:08:16;;;;;;;;;;;12.50;99.90;;;;;;5137224;27;20015;-44
2023/08/29 01:10:41;;;;;;;;;;;12.40;99.90;;;;;;5136914;27;20361;-44
2023/08/29 01:13:07;;;;;;;;;;;12.40;99.90;;;;;;5136893;27;20006;-44
2023/08/29 01:15:33;;;;;;;;;;;12.40;99.90;;;;;;5137101;27;19911;-44
2023/08/29 01:18:03;;;;;;;;;;;12.40;99.90;;;;;;5135203;27;19911;-46
2023/08/29 01:20:33;;;;;;;;;;;12.30;99.90;;;;;;5136708;27;19915;-45
2023/08/29 01:23:01;;;;;;;;;;;12.30;99.90;;;;;;5136894;27;20326;-44
2023/08/29 01:25:34;;;;;;;;;;;12.30;99.90;;;;;;5136935;27;19961;-45
2023/08/29 01:28:01;;;;;;;;;;;12.30;99.90;;;;;;5136834;27;19919;-45
2023/08/29 01:30:27;;;;;;;;;;;12.30;99.90;;;;;;5131555;27;19912;-44
2023/08/29 01:32:54;;;;;;;;;;;12.30;99.90;;;;;;5132370;27;19911;-44
2023/08/29 01:35:21;;;;;;;;;;;12.30;99.90;;;;;;5136718;27;19931;-48
2023/08/29 01:37:47;;;;;;;;;;;12.20;99.90;;;;;;5136606;27;20354;-43
2023/08/29 01:40:12;;;;;;;;;;;12.20;99.90;;;;;;5136404;27;20056;-44
2023/08/29 01:42:38;;;;;;;;;;;12.20;99.90;;;;;;5136408;27;19911;-45
2023/08/29 01:45:06;;;;;;;;;;;12.20;99.90;;;;;;5124641;27;19912;-49
2023/08/29 01:47:32;;;;;;;;;;;12.20;99.90;;;;;;5129903;27;19926;-46
2023/08/29 01:49:59;;;;;;;;;;;12.20;99.90;;;;;;5136354;27;19908;-48
2023/08/29 01:52:25;;;;;;;;;;;12.20;99.90;;;;;;5136477;27;19907;-44
2023/08/29 01:54:50;;;;;;;;;;;12.20;99.90;;;;;;5136271;27;20388;-44
2023/08/29 01:57:19;;;;;;;;;;;12.10;99.90;;;;;;5136085;27;20324;-45
2023/08/29 01:59:45;;;;;;;;;;;12.10;99.90;;;;;;5136102;27;19952;-45
2023/08/29 02:02:13;;;;;;;;;;;12.00;99.90;;;;;;5136132;27;19943;-46
2023/08/29 02:04:38;;;;;;;;;;;12.00;99.90;;;;;;5136114;27;20281;-46
2023/08/29 02:07:03;;;;;;;;;;;11.90;99.90;;;;;;5135904;27;19916;-45
2023/08/29 02:09:29;;;;;;;;;;;11.90;99.90;;;;;;5135067;27;19952;-48
2023/08/29 02:11:55;;;;;;;;;;;11.90;99.90;;;;;;5135909;27;20149;-45
2023/08/29 02:14:20;;;;;;;;;;;11.90;99.90;;;;;;5135947;27;20006;-44
2023/08/29 02:16:46;;;;;;;;;;;11.80;99.90;;;;;;5135902;27;19965;-46
2023/08/29 02:19:12;;;;;;;;;;;11.80;99.90;;;;;;5135824;27;20010;-44
2023/08/29 02:21:37;;;;;;;;;;;11.80;99.90;;;;;;5135751;27;19908;-45
2023/08/29 02:24:03;;;;;;;;;;;11.70;99.90;;;;;;5135809;27;20281;-46
2023/08/29 02:26:28;;;;;;;;;;;11.80;99.90;;;;;;5135617;27;19919;-45
2023/08/29 02:28:54;;;;;;;;;;;11.80;99.90;;;;;;5135612;27;19907;-45
2023/08/29 02:31:20;;;;;;;;;;;11.80;99.90;;;;;;5135655;27;19990;-47
2023/08/29 02:33:45;;;;;;;;;;;11.80;99.90;;;;;;5135478;27;19978;-47
2023/08/29 02:36:12;;;;;;;;;;;11.80;99.90;;;;;;5135625;27;19943;-44
2023/08/29 02:38:38;;;;;;;;;;;11.80;99.90;;;;;;5135454;27;19981;-44
2023/08/29 02:41:05;;;;;;;;;;;11.80;99.90;;;;;;5135434;27;20338;-46
2023/08/29 02:43:30;;;;;;;;;;;11.80;99.90;;;;;;5135334;27;19914;-45
2023/08/29 02:45:56;;;;;;;;;;;11.80;99.90;;;;;;5134923;27;20289;-44
2023/08/29 02:48:22;;;;;;;;;;;11.80;99.90;;;;;;5135196;27;19919;-47
2023/08/29 02:50:50;;;;;;;;;;;11.80;99.90;;;;;;5135166;27;19915;-44
2023/08/29 02:53:16;;;;;;;;;;;11.80;99.90;;;;;;5135256;27;20000;-49
2023/08/29 02:55:42;;;;;;;;;;;11.80;99.90;;;;;;5135005;27;19915;-45
2023/08/29 02:58:07;;;;;;;;;;;11.80;99.90;;;;;;5135029;27;19916;-43
2023/08/29 03:00:33;;;;;;;;;;;11.70;99.90;;;;;;5135010;27;20323;-45
2023/08/29 03:02:58;;;;;;;;;;;11.70;99.90;;;;;;5135102;27;19958;-44
2023/08/29 03:05:24;;;;;;;;;;;11.80;99.90;;;;;;5135020;27;19914;-45
2023/08/29 03:07:49;;;;;;;;;;;11.70;99.90;;;;;;5134803;27;20374;-49
2023/08/29 03:10:15;;;;;;;;;;;11.70;99.90;;;;;;5134895;27;19907;-45
2023/08/29 03:12:40;;;;;;;;;;;11.60;99.90;;;;;;5134750;27;19933;-45
2023/08/29 03:15:06;;;;;;;;;;;11.60;99.90;;;;;;5134948;27;20362;-46
2023/08/29 03:17:31;;;;;;;;;;;11.60;99.90;;;;;;5134664;27;19908;-48
2023/08/29 03:19:57;;;;;;;;;;;11.60;99.90;;;;;;5134465;27;19912;-45
2023/08/29 03:22:22;;;;;;;;;;;11.50;99.90;;;;;;5134688;27;19942;-46
2023/08/29 03:24:48;;;;;;;;;;;11.50;99.90;;;;;;5134489;27;19912;-44
2023/08/29 03:27:13;;;;;;;;;;;11.50;99.90;;;;;;5134714;27;19923;-48
2023/08/29 03:29:39;;;;;;;;;;;11.60;99.90;;;;;;5134437;27;19907;-45
2023/08/29 03:32:05;;;;;;;;;;;11.50;99.90;;;;;;5134549;27;19908;-45
2023/08/29 03:34:30;;;;;;;;;;;11.50;99.90;;;;;;5134460;27;20387;-46
2023/08/29 03:36:56;;;;;;;;;;;11.50;99.90;;;;;;5134614;27;19914;-45
2023/08/29 03:39:21;;;;;;;;;;;11.40;99.90;;;;;;5134295;27;20006;-47
2023/08/29 03:41:47;;;;;;;;;;;11.50;99.90;;;;;;5134007;27;19908;-46
2023/08/29 03:44:12;;;;;;;;;;;11.50;99.90;;;;;;5134341;27;19911;-44
2023/08/29 03:46:38;;;;;;;;;;;11.50;99.90;;;;;;5133764;27;19927;-45
2023/08/29 03:49:03;;;;;;;;;;;11.40;99.90;;;;;;5134195;27;19911;-47
2023/08/29 03:51:29;;;;;;;;;;;11.40;99.90;;;;;;5134166;27;20333;-46
2023/08/29 03:53:55;;;;;;;;;;;11.40;99.90;;;;;;5134136;27;20064;-45
2023/08/29 03:56:20;;;;;;;;;;;11.40;99.90;;;;;;5129037;27;19973;-44
2023/08/29 03:58:46;;;;;;;;;;;11.40;99.90;;;;;;5116665;27;20010;-45
2023/08/29 04:01:12;;;;;;;;;;;11.40;99.90;;;;;;5130612;27;19925;-45
2023/08/29 04:03:37;;;;;;;;;;;11.40;99.90;;;;;;5130162;27;20366;-44
2023/08/29 04:06:03;;;;;;;;;;;11.40;99.90;;;;;;5123348;27;19919;-47
2023/08/29 04:08:29;;;;;;;;;;;11.40;99.90;;;;;;5113619;28;19937;-45
2023/08/29 04:10:54;;;;;;;;;;;11.30;99.90;;;;;;5112906;28;19915;-45
2023/08/29 04:13:20;;;;;;;;;;;11.30;99.90;;;;;;5113339;28;20278;-43
2023/08/29 04:15:45;;;;;;;;;;;11.30;99.90;;;;;;5117658;27;19955;-45
2023/08/29 04:18:11;;;;;;;;;;;11.20;99.90;;;;;;5133817;27;19918;-44
2023/08/29 04:20:36;;;;;;;;;;;11.20;99.90;;;;;;5133741;28;20267;-44
2023/08/29 04:23:07;;;;;;;;;;;11.20;99.90;;;;;;5133675;28;19914;-45
2023/08/29 04:25:36;;;;;;;;;;;11.20;99.90;;;;;;5130694;28;19968;-45
2023/08/29 04:28:01;;;;;;;;;;;11.10;99.90;;;;;;5113109;28;20381;-50
2023/08/29 04:30:27;;;;;;;;;;;11.00;99.90;;;;;;5113227;28;19998;-44
2023/08/29 04:32:53;;;;;;;;;;;11.00;99.90;;;;;;5116714;28;19914;-44
2023/08/29 04:35:19;;;;;;;;;;;11.00;99.90;;;;;;5117597;27;19918;-44
2023/08/29 04:37:46;;;;;;;;;;;11.00;99.90;;;;;;5137641;27;19919;-45
2023/08/29 04:40:11;;;;;;;;;;;11.00;99.90;;;;;;5135839;27;19912;-50
2023/08/29 04:42:37;;;;;;;;;;;11.00;99.90;;;;;;5134550;27;20006;-45
2023/08/29 04:45:06;;;;;;;;;;;11.00;99.90;;;;;;5137574;27;19908;-45
2023/08/29 04:47:32;;;;;;;;;;;11.00;99.90;;;;;;5117689;27;19919;-48
2023/08/29 04:49:58;;;;;;;;;;;10.90;99.90;;;;;;5116980;28;20428;-46
2023/08/29 04:52:24;;;;;;;;;;;10.90;99.90;;;;;;5116687;28;19918;-45
2023/08/29 04:54:50;;;;;;;;;;;10.80;99.90;;;;;;5116986;27;20272;-45
2023/08/29 04:57:15;;;;;;;;;;;10.80;99.90;;;;;;5114730;28;19957;-49
2023/08/29 04:59:41;;;;;;;;;;;10.90;99.90;;;;;;5113927;28;20278;-45
2023/08/29 05:02:08;;;;;;;;;;;10.80;99.90;;;;;;5112918;28;19996;-45
2023/08/29 05:04:33;;;;;;;;;;;10.80;99.90;;;;;;5106249;27;19912;-44
2023/08/29 05:06:59;;;;;;;;;;;10.80;99.90;;;;;;5116473;28;19931;-44
2023/08/29 05:09:25;;;;;;;;;;;10.80;99.90;;;;;;5099255;28;19909;-45
2023/08/29 05:11:50;;;;;;;;;;;10.80;99.90;;;;;;5096197;28;20001;-45
2023/08/29 05:14:15;;;;;;;;;;;10.80;99.90;;;;;;5100764;27;19918;-47
2023/08/29 05:16:41;;;;;;;;;;;10.90;99.90;;;;;;5128693;27;19964;-47
2023/08/29 05:19:07;;;;;;;;;;;10.80;99.90;;;;;;5116544;28;20380;-45
2023/08/29 05:21:33;;;;;;;;;;;10.90;99.90;;;;;;5116438;28;19908;-44
2023/08/29 05:23:59;;;;;;;;;;;10.90;99.90;;;;;;5120231;27;19973;-44
2023/08/29 05:26:25;;;;;;;;;;;10.80;99.90;;;;;;5136791;27;19958;-44
2023/08/29 05:28:51;;;;;;;;;;;10.80;99.90;;;;;;5136769;27;20331;-44
2023/08/29 05:31:16;;;;;;;;;;;10.80;99.90;;;;;;5136699;27;19915;-44
2023/08/29 05:33:42;;;;;;;;;;;10.80;99.90;;;;;;5136640;27;19921;-50
2023/08/29 05:36:07;;;;;;;;;;;10.80;99.90;;;;;;5116193;27;19915;-45
2023/08/29 05:38:32;;;;;;;;;;;10.80;99.90;;;;;;5116122;28;20158;-44
2023/08/29 05:40:58;;;;;;;;;;;10.80;99.90;;;;;;5115879;28;19961;-47
2023/08/29 05:43:23;;;;;;;;;;;10.80;99.90;;;;;;5110043;27;19912;-46
2023/08/29 05:45:49;;;;;;;;;;;10.90;99.90;;;;;;5117224;27;20293;-44
2023/08/29 05:48:14;;;;;;;;;;;10.90;99.90;;;;;;5138321;27;19968;-44
2023/08/29 05:50:40;;;;;;;;;;;10.90;99.90;;;;;;5145109;27;19911;-46
2023/08/29 05:53:06;;;;;;;;;;;10.90;99.90;;;;;;5155353;27;19911;-44
2023/08/29 05:55:32;;;;;;;;;;;10.90;99.90;;;;;;5136317;27;19914;-46
2023/08/29 05:57:57;;;;;;;;;;;10.90;99.90;;;;;;5136226;27;19907;-47
2023/08/29 06:00:23;;;;;;;;;;;10.90;99.90;;;;;;5136088;27;20361;-46
2023/08/29 06:02:51;;;;;;;;;;;11.00;99.90;;;;;;5136119;27;19929;-44
2023/08/29 06:05:17;;;;;;;;;;;11.00;99.90;;;;;;5139748;27;19934;-44
2023/08/29 06:07:43;;;;;;;;;;;11.10;99.90;;;;;;5149451;27;20373;-45
2023/08/29 06:10:08;;;;;;;;;;;11.20;99.90;;;;;;5156570;27;19911;-45
2023/08/29 06:12:34;;;;;;;;;;;11.20;99.90;;;;;;5156715;27;19907;-45
2023/08/29 06:15:00;;;;;;;;;;;11.20;99.90;;;;;;5156603;27;20289;-43
2023/08/29 06:17:25;;;;;;;;;;;11.20;99.90;;;;;;5155525;27;20285;-44
2023/08/29 06:19:50;;;;;;;;;;;11.20;99.90;;;;;;5152286;27;20659;-44
2023/08/29 06:22:16;;;;;;;;;;;11.30;99.90;;;;;;5156503;27;19907;-43
2023/08/29 06:24:41;;;;;;;;;;;11.30;99.90;;;;;;5156636;27;19994;-48
2023/08/29 06:27:07;;;;;;;;;;;11.40;99.90;;;;;;5145414;27;19923;-45
2023/08/29 06:29:33;;;;;;;;;;;11.40;99.90;;;;;;5108951;27;20376;-45
2023/08/29 06:31:58;;;;;;;;;;;11.40;99.90;;;;;;5130381;27;19911;-43
2023/08/29 06:34:24;;;;;;;;;;;11.50;99.90;;;;;;5136192;27;19990;-47
2023/08/29 06:36:49;;;;;;;;;;;11.50;99.90;;;;;;5116079;27;19912;-47
2023/08/29 06:39:15;;;;;;;;;;;11.60;99.90;;;;;;5137989;27;19912;-45
2023/08/29 06:41:40;;;;;;;;;;;11.70;99.90;;;;;;5127186;27;20256;-47
2023/08/29 06:44:06;;;;;;;;;;;11.70;99.90;;;;;;5129819;27;19911;-45
2023/08/29 06:46:31;;;;;;;;;;;11.80;99.90;;;;;;5117143;27;20211;-45
2023/08/29 06:48:57;;;;;;;;;;;11.80;99.90;;;;;;5131945;27;19915;-44
2023/08/29 06:51:24;;;;;;;;;;;11.90;99.90;;;;;;5124966;27;19911;-44
2023/08/29 06:53:49;;;;;;;;;;;12.00;99.90;;;;;;5136927;27;19949;-45
2023/08/29 06:56:15;;;;;;;;;;;12.00;99.90;;;;;;5135194;27;19914;-44
2023/08/29 06:58:40;;;;;;;;;;;12.10;99.90;;;;;;5135191;27;19950;-45
2023/08/29 07:01:05;;;;;;;;;;;12.20;99.90;;;;;;5124423;27;19937;-47
2023/08/29 07:03:31;;;;;;;;;;;12.20;99.90;;;;;;5129849;27;19912;-45
2023/08/29 07:05:56;;;;;;;;;;;12.30;99.90;;;;;;5134605;27;19908;-46
2023/08/29 07:08:22;;;;;;;;;;;12.40;99.90;;;;;;5121660;27;20360;-44
2023/08/29 07:10:48;;;;;;;;;;;12.50;99.90;;;;;;5127312;27;20413;-45
2023/08/29 07:13:13;;;;;;;;;;;12.60;99.90;;;;;;5133043;27;19912;-45
2023/08/29 07:15:39;;;;;;;;;;;12.80;99.90;;;;;;5135500;27;19911;-43
2023/08/29 07:18:05;;;;;;;;;;;12.80;99.90;;;;;;5135520;27;19998;-45
2023/08/29 07:20:31;;;;;;;;;;;13.00;99.90;;;;;;5118681;27;19911;-46
2023/08/29 07:22:57;;;;;;;;;;;13.10;99.90;;;;;;5143642;27;19911;-46
2023/08/29 07:25:35;;;;;;;;;;;13.30;99.90;;;;;;5150606;27;19915;-46
2023/08/29 07:28:01;;;;;;;;;;;13.50;99.90;;;;;;5123773;27;19920;-47
2023/08/29 07:30:26;;;;;;;;;;;13.70;99.90;;;;;;5126518;27;19918;-45
2023/08/29 07:32:53;;;;;;;;;;;13.80;99.90;;;;;;5143927;27;20010;-45
2023/08/29 07:35:18;;;;;;;;;;;14.00;99.90;;;;;;5149506;27;19912;-43
2023/08/29 07:37:44;;;;;;;;;;;14.20;99.90;;;;;;5133867;27;19908;-46
2023/08/29 07:40:10;;;;;;;;;;;14.40;99.90;;;;;;5129705;27;20314;-45
2023/08/29 07:42:35;;;;;;;;;;;14.60;99.90;;;;;;5141194;27;19911;-47
2023/08/29 07:45:01;;;;;;;;;;;14.70;99.90;;;;;;5155699;27;19930;-44
2023/08/29 07:47:26;;;;;;;;;;;14.90;99.90;;;;;;5135969;27;20014;-44
2023/08/29 07:49:52;;;;;;;;;;;15.10;99.90;;;;;;5150544;27;19934;-47
2023/08/29 07:52:17;;;;;;;;;;;15.20;99.90;;;;;;5115315;27;19953;-45
2023/08/29 07:54:43;;;;;;;;;;;15.40;99.90;;;;;;5134720;27;19908;-45
2023/08/29 07:57:08;;;;;;;;;;;15.50;99.90;;;;;;5135811;27;19950;-46
2023/08/29 07:59:34;;;;;;;;;;;15.70;99.90;;;;;;5154617;27;20347;-44
2023/08/29 08:01:59;;;;;;;;;;;15.80;99.90;;;;;;5154618;27;19907;-45
2023/08/29 08:04:25;;;;;;;;;;;15.90;99.90;;;;;;5154656;27;20274;-45
2023/08/29 08:06:51;;;;;;;;;;;16.10;99.90;;;;;;5153466;27;19919;-45
2023/08/29 08:09:16;;;;;;;;;;;16.10;99.90;;;;;;5135049;27;20430;-45
2023/08/29 08:11:42;;;;;;;;;;;16.20;99.90;;;;;;5133779;27;19915;-46
2023/08/29 08:14:07;;;;;;;;;;;16.30;99.90;;;;;;5133835;27;19965;-44
2023/08/29 08:16:33;;;;;;;;;;;16.40;99.90;;;;;;5141157;27;19936;-46
2023/08/29 08:18:58;;;;;;;;;;;16.40;99.90;;;;;;5148698;27;20318;-44
2023/08/29 08:21:24;;;;;;;;;;;16.60;99.90;;;;;;5137502;27;19928;-45
2023/08/29 08:23:49;;;;;;;;;;;16.60;99.90;;;;;;5151567;27;19915;-45
2023/08/29 08:26:15;;;;;;;;;;;16.70;99.90;;;;;;5150596;27;19950;-45
2023/08/29 08:28:40;;;;;;;;;;;16.80;99.90;;;;;;5154317;27;19915;-43
2023/08/29 08:31:06;;;;;;;;;;;16.80;99.90;;;;;;5154318;27;20358;-45
2023/08/29 08:33:32;;;;;;;;;;;16.80;99.90;;;;;;5154311;27;19911;-45
2023/08/29 08:35:57;;;;;;;;;;;16.90;99.90;;;;;;5154315;27;19907;-44
2023/08/29 08:38:23;;;;;;;;;;;16.90;99.90;;;;;;5136087;27;19947;-45
2023/08/29 08:40:49;;;;;;;;;;;17.00;99.90;;;;;;5133556;28;20022;-46
2023/08/29 08:43:15;;;;;;;;;;;17.00;99.90;;;;;;5133586;28;19911;-45
2023/08/29 08:45:42;;;;;;;;;;;17.10;99.90;;;;;;5133459;28;19919;-44
2023/08/29 08:48:08;;;;;;;;;;;17.10;99.90;;;;;;5147765;27;19934;-44
2023/08/29 08:50:34;;;;;;;;;;;17.10;99.90;;;;;;5154225;27;20353;-45
2023/08/29 08:53:00;;;;;;;;;;;17.20;99.90;;;;;;5154280;27;19976;-44
2023/08/29 08:55:26;;;;;;;;;;;17.20;99.90;;;;;;5154205;27;19907;-44
2023/08/29 08:57:52;;;;;;;;;;;17.30;99.90;;;;;;5141434;27;19911;-45
2023/08/29 09:00:19;;;;;;;;;;;17.30;99.90;;;;;;5133191;27;19918;-46
2023/08/29 09:02:44;;;;;;;;;;;17.30;99.90;;;;;;5133175;28;19927;-45
2023/08/29 09:05:10;;;;;;;;;;;17.30;99.90;;;;;;5133392;28;19918;-45
2023/08/29 09:07:39;;;;;;;;;;;17.40;99.90;;;;;;5142243;27;19987;-43
2023/08/29 09:10:07;;;;;;;;;;;17.40;99.90;;;;;;5140198;27;19918;-45
2023/08/29 09:12:33;;;;;;;;;;;17.40;99.90;;;;;;5133228;28;20013;-44
2023/08/29 09:15:02;;;;;;;;;;;17.50;99.90;;;;;;5133226;28;20401;-45
2023/08/29 09:17:27;;;;;;;;;;;17.60;99.90;;;;;;5142024;27;19915;-45
2023/08/29 09:19:52;;;;;;;;;;;17.60;99.90;;;;;;5157735;27;19914;-45
2023/08/29 09:22:18;;;;;;;;;;;17.80;99.90;;;;;;5157801;27;19907;-46
2023/08/29 09:24:44;;;;;;;;;;;17.80;99.90;;;;;;5157610;27;19907;-46
2023/08/29 09:27:09;;;;;;;;;;;17.90;99.90;;;;;;5151770;27;19927;-44
2023/08/29 09:29:35;;;;;;;;;;;18.00;99.90;;;;;;5150719;27;19915;-46
2023/08/29 09:32:11;;;;;;;;;;;18.00;99.90;;;;;;5157516;27;19949;-43
2023/08/29 09:34:36;;;;;;;;;;;18.00;99.90;;;;;;5149824;27;19919;-44
2023/08/29 09:37:03;;;;;;;;;;;18.10;99.90;;;;;;5138782;27;19934;-45
2023/08/29 09:39:28;;;;;;;;;;;18.10;99.90;;;;;;5138661;27;20362;-44
2023/08/29 09:42:11;;;;;;;;;;;18.20;99.90;;;;;;5136556;27;19915;-43
2023/08/29 09:44:38;;;;;;;;;;;18.30;99.90;;;;;;5136772;27;20413;-43
2023/08/29 09:47:05;;;;;;;;;;;18.30;99.90;;;;;;5136220;27;19926;-43
2023/08/29 09:49:32;;;;;;;;;;;18.30;99.90;;;;;;5147519;27;19911;-45
2023/08/29 09:52:01;;;;;;;;;;;18.40;99.90;;;;;;5157316;27;19907;-43
2023/08/29 09:54:28;;;;;;;;;;;18.40;99.90;;;;;;5157147;27;19908;-43
2023/08/29 09:56:54;;;;;;;;;;;18.40;99.90;;;;;;5156975;27;19907;-45
2023/08/29 09:59:20;;;;;;;;;;;18.50;99.90;;;;;;5147786;27;19923;-44
2023/08/29 10:01:46;;;;;;;;;;;18.50;99.90;;;;;;5136052;27;19915;-45
2023/08/29 10:04:14;;;;;;;;;;;18.60;99.90;;;;;;5136487;27;19907;-44
2023/08/29 10:06:40;;;;;;;;;;;18.60;99.90;;;;;;5136062;27;19918;-45
2023/08/29 10:09:06;;;;;;;;;;;18.70;99.90;;;;;;5136545;27;20021;-45
2023/08/29 10:11:32;;;;;;;;;;;18.70;99.90;;;;;;5136083;27;19951;-46
2023/08/29 10:13:58;;;;;;;;;;;18.80;99.90;;;;;;5136025;27;19934;-46
2023/08/29 10:16:25;;;;;;;;;;;18.90;99.90;;;;;;5136011;27;20370;-45
2023/08/29 10:18:51;;;;;;;;;;;19.00;99.90;;;;;;5139606;27;19910;-45
2023/08/29 10:21:17;;;;;;;;;;;19.00;99.90;;;;;;5156699;27;19907;-43
2023/08/29 10:23:43;;;;;;;;;;;19.00;99.90;;;;;;5156455;27;19954;-45
2023/08/29 10:26:09;;;;;;;;;;;19.00;99.90;;;;;;5156567;27;19907;-45
2023/08/29 10:28:36;;;;;;;;;;;19.00;99.90;;;;;;5155124;27;19915;-47
2023/08/29 10:31:03;;;;;;;;;;;19.00;99.90;;;;;;5135412;27;20312;-44
2023/08/29 10:33:29;;;;;;;;;;;18.90;99.90;;;;;;5135708;27;19922;-44
2023/08/29 10:35:54;;;;;;;;;;;18.80;99.90;;;;;;5135553;27;19908;-44
2023/08/29 10:38:20;;;;;;;;;;;18.80;99.90;;;;;;5136018;27;19922;-45
2023/08/29 10:40:48;;;;;;;;;;;18.70;99.90;;;;;;5137665;27;19919;-46
2023/08/29 10:43:20;;;;;;;;;;;18.60;99.90;;;;;;5153490;27;19912;-45
2023/08/29 10:45:49;;;;;;;;;;;18.50;99.90;;;;;;5114533;28;19927;-45
2023/08/29 10:48:16;;;;;;;;;;;18.40;99.90;;;;;;5117254;27;19916;-46
2023/08/29 10:50:46;;;;;;;;;;;18.40;99.90;;;;;;5143004;27;19911;-45
2023/08/29 10:53:21;;;;;;;;;;;18.30;99.90;;;;;;5149587;27;19963;-45
2023/08/29 10:56:03;;;;;;;;;;;18.30;99.90;;;;;;5155790;27;19911;-45
2023/08/29 10:58:34;;;;;;;;;;;18.20;99.90;;;;;;5155903;27;19907;-48
2023/08/29 11:01:01;;;;;;;;;;;18.20;99.90;;;;;;5155926;27;19969;-46
2023/08/29 11:03:39;;;;;;;;;;;18.20;99.90;;;;;;5139797;27;20326;-46
2023/08/29 11:06:04;;;;;;;;;;;18.20;99.90;;;;;;5134952;27;19908;-48
2023/08/29 11:08:30;;;;;;;;;;;18.10;99.90;;;;;;5134984;27;19929;-46
2023/08/29 11:11:08;;;;;;;;;;;18.10;99.90;;;;;;5134867;27;20281;-47
2023/08/29 11:13:33;;;;;;;;;;;18.10;99.90;;;;;;5149807;27;20421;-45
2023/08/29 11:15:59;;;;;;;;;;;18.20;99.90;;;;;;5155503;27;19969;-45
2023/08/29 11:18:26;;;;;;;;;;;18.20;99.90;;;;;;5155604;27;19907;-44
2023/08/29 11:20:52;;;;;;;;;;;18.20;99.90;;;;;;5150449;27;20026;-43
2023/08/29 11:23:19;;;;;;;;;;;18.20;99.90;;;;;;5155345;27;20350;-45
2023/08/29 11:25:49;;;;;;;;;;;18.30;99.90;;;;;;5155273;27;19975;-45
2023/08/29 11:28:16;;;;;;;;;;;18.30;99.90;;;;;;5155213;27;19915;-43
2023/08/29 11:30:42;;;;;;;;;;;18.40;99.90;;;;;;5152000;27;19911;-47
2023/08/29 11:33:07;;;;;;;;;;;18.40;99.90;;;;;;5134410;27;19959;-44
2023/08/29 11:35:33;;;;;;;;;;;18.50;99.90;;;;;;5134612;27;19907;-43
2023/08/29 11:37:58;;;;;;;;;;;18.50;99.90;;;;;;5134404;27;19908;-44
2023/08/29 11:40:24;;;;;;;;;;;18.60;99.90;;;;;;5125829;27;19915;-45
2023/08/29 11:42:50;;;;;;;;;;;18.60;99.90;;;;;;5119351;27;19920;-45
2023/08/29 11:45:16;;;;;;;;;;;18.70;99.90;;;;;;5133872;27;19916;-45
2023/08/29 11:47:41;;;;;;;;;;;18.80;99.90;;;;;;5125027;27;19915;-44
2023/08/29 11:50:07;;;;;;;;;;;19.00;99.90;;;;;;5122614;27;20141;-44
2023/08/29 11:52:33;;;;;;;;;;;19.10;99.90;;;;;;5148784;27;19911;-45
2023/08/29 11:55:00;;;;;;;;;;;19.30;99.90;;;;;;5150331;27;19964;-45
2023/08/29 11:57:30;;;;;;;;;;;19.50;99.90;;;;;;5135996;27;19911;-44
2023/08/29 11:59:56;;;;;;;;;;;19.70;99.90;;;;;;5123828;27;20209;-44
2023/08/29 12:02:22;;;;;;;;;;;19.90;99.90;;;;;;5113403;28;19908;-45
2023/08/29 12:04:52;;;;;;;;;;;20.10;99.90;;;;;;5113268;28;20392;-45
2023/08/29 12:07:18;;;;;;;;;;;20.30;99.90;;;;;;5135811;27;19927;-43
2023/08/29 12:09:46;;;;;;;;;;;20.50;99.90;;;;;;5133702;27;19907;-44
2023/08/29 12:12:32;;;;;;;;;;;20.60;99.90;;;;;;5135648;27;19911;-45
2023/08/29 12:14:58;;;;;;;;;;;20.70;99.90;;;;;;5133867;27;19939;-45
2023/08/29 12:17:33;;;;;;;;;;;20.70;99.90;;;;;;5133817;27;19953;-44
2023/08/29 12:19:59;;;;;;;;;;;20.60;99.90;;;;;;5132991;27;19918;-44
2023/08/29 12:22:28;;;;;;;;;;;20.50;99.90;;;;;;5142227;27;20006;-44
2023/08/29 12:24:58;;;;;;;;;;;20.50;99.90;;;;;;5114897;28;19954;-47
2023/08/29 12:27:24;;;;;;;;;;;20.50;99.90;;;;;;5113030;28;19911;-43
2023/08/29 12:29:49;;;;;;;;;;;20.40;99.90;;;;;;5128619;27;20026;-44
2023/08/29 12:32:16;;;;;;;;;;;20.40;99.90;;;;;;5126816;27;20339;-44
2023/08/29 12:34:43;;;;;;;;;;;20.30;99.90;;;;;;5133363;28;20355;-43
2023/08/29 12:37:09;;;;;;;;;;;20.20;99.90;;;;;;5133776;28;20357;-44
2023/08/29 12:39:35;;;;;;;;;;;20.20;99.90;;;;;;5133539;28;19915;-45
2023/08/29 12:42:00;;;;;;;;;;;20.10;99.90;;;;;;5117534;27;19919;-45
2023/08/29 12:44:26;;;;;;;;;;;20.20;99.90;;;;;;5129018;28;19908;-43
2023/08/29 12:46:51;;;;;;;;;;;20.20;99.90;;;;;;5126315;27;19934;-45
2023/08/29 12:49:17;;;;;;;;;;;20.10;99.90;;;;;;5133229;27;20259;-44
2023/08/29 12:51:42;;;;;;;;;;;20.10;99.90;;;;;;5116295;27;20006;-44
2023/08/29 12:54:08;;;;;;;;;;;20.10;99.90;;;;;;5125540;27;19911;-43
2023/08/29 12:56:33;;;;;;;;;;;20.10;99.90;;;;;;5125171;27;19919;-45
2023/08/29 12:58:58;;;;;;;;;;;20.10;99.90;;;;;;5116412;28;20397;-43
2023/08/29 13:01:27;;;;;;;;;;;20.10;99.90;;;;;;5129359;27;19911;-46
2023/08/29 13:03:56;;;;;;;;;;;20.10;99.90;;;;;;5127868;27;20000;-44
2023/08/29 13:06:22;;;;;;;;;;;20.10;99.90;;;;;;5126621;27;20282;-45
2023/08/29 13:08:47;;;;;;;;;;;20.20;99.90;;;;;;5137808;27;20370;-44
2023/08/29 13:11:13;;;;;;;;;;;20.20;99.90;;;;;;5129604;27;19964;-45
2023/08/29 13:13:38;;;;;;;;;;;20.20;99.90;;;;;;5137189;27;19950;-44
2023/08/29 13:16:04;;;;;;;;;;;20.20;99.90;;;;;;5136450;27;19912;-45
2023/08/29 13:18:29;;;;;;;;;;;20.20;99.90;;;;;;5129462;27;20350;-44
2023/08/29 13:20:55;;;;;;;;;;;20.20;99.90;;;;;;5115874;28;20369;-44
2023/08/29 13:23:20;;;;;;;;;;;20.20;99.90;;;;;;5122732;27;19911;-47
2023/08/29 13:25:46;;;;;;;;;;;20.30;99.90;;;;;;5126260;27;20274;-43
2023/08/29 13:28:11;;;;;;;;;;;20.30;99.90;;;;;;5119981;27;19920;-44
2023/08/29 13:30:37;;;;;;;;;;;20.30;99.90;;;;;;5118454;27;20020;-47
2023/08/29 13:33:03;;;;;;;;;;;20.40;99.90;;;;;;5119430;27;19918;-45
2023/08/29 13:35:28;;;;;;;;;;;20.40;99.90;;;;;;5129131;27;19915;-44
2023/08/29 13:37:54;;;;;;;;;;;20.50;99.90;;;;;;5117211;27;19915;-44
2023/08/29 13:40:20;;;;;;;;;;;20.60;99.90;;;;;;5121991;27;20283;-44
2023/08/29 13:42:46;;;;;;;;;;;20.70;99.90;;;;;;5132449;27;20350;-44
2023/08/29 13:45:13;;;;;;;;;;;20.70;99.90;;;;;;5132608;27;19908;-44
2023/08/29 13:47:39;;;;;;;;;;;20.80;99.90;;;;;;5115607;28;20398;-44
2023/08/29 13:50:05;;;;;;;;;;;20.80;99.90;;;;;;5123869;27;20034;-45
2023/08/29 13:52:30;;;;;;;;;;;20.80;99.90;;;;;;5115290;28;20350;-44
2023/08/29 13:54:56;;;;;;;;;;;20.90;99.90;;;;;;5132181;27;19915;-47
2023/08/29 13:57:21;;;;;;;;;;;20.90;99.90;;;;;;5115434;27;19908;-44
2023/08/29 13:59:47;;;;;;;;;;;21.00;99.90;;;;;;5123155;27;20045;-44
2023/08/29 14:02:13;;;;;;;;;;;21.00;99.90;;;;;;5123840;27;20418;-45
2023/08/29 14:04:38;;;;;;;;;;;21.00;99.90;;;;;;5130238;27;19912;-44
2023/08/29 14:07:04;;;;;;;;;;;20.90;99.90;;;;;;5116617;27;19919;-46
2023/08/29 14:09:29;;;;;;;;;;;20.80;99.90;;;;;;5123732;27;19922;-44